sensor_id;sensor_type;location;lat;lon;timestamp;temperature;humidity
44275;DHT22;29970;52.124;5.280;2023-08-30T00:01:44;14.80;99.90
44275;DHT22;29970;52.124;5.280;2023-08-30T00:04:12;14.90;99.90
44275;DHT22;29970;52.124;5.280;2023-08-30T00:06:40;14.70;99.90
44275;DHT22;29970;52.124;5.280;2023-08-30T00:09:07;14.70;99.90
44275;DHT22;29970;52.124;5.280;2023-08-30T00:11:34;14.70;99.90
44275;DHT22;29970;52.124;5.280;2023-08-30T00:14:06;14.70;99.90
44275;DHT22;29970;52.124;5.280;2023-08-30T00:16:35;14.60;99.90
44275;DHT22;29970;52.124;5.280;2023-08-30T00:19:06;14.60;99.90
44275;DHT22;29970;52.124;5.280;2023-08-30T00:21:35;14.40;99.90
44275;DHT22;29970;52.124;5.280;2023-08-30T00:24:02;14.70;99.90
44275;DHT22;29970;52.124;5.280;2023-08-30T00:26:29;14.60;99.90
44275;DHT22;29970;52.124;5.280;2023-08-30T00:28:56;14.30;99.90
44275;DHT22;29970;52.124;5.280;2023-08-30T00:31:24;14.60;99.90
44275;DHT22;29970;52.124;5.280;2023-08-30T00:33:51;14.50;99.90
44275;DHT22;29970;52.124;5.280;2023-08-30T00:36:18;14.60;99.90
44275;DHT22;29970;52.124;5.280;2023-08-30T00:38:48;14.50;99.90
44275;DHT22;29970;52.124;5.280;2023-08-30T00:41:15;14.50;99.90
44275;DHT22;29970;52.124;5.280;2023-08-30T00:43:42;14.60;99.90
44275;DHT22;29970;52.124;5.280;2023-08-30T00:46:12;14.50;99.90
44275;DHT22;29970;52.124;5.280;2023-08-30T00:48:40;14.40;99.90
44275;DHT22;29970;52.124;5.280;2023-08-30T00:51:07;14.50;99.90
44275;DHT22;29970;52.124;5.280;2023-08-30T00:53:39;14.40;99.90
44275;DHT22;29970;52.124;5.280;2023-08-30T00:56:11;14.40;99.90
44275;DHT22;29970;52.124;5.280;2023-08-30T00:58:39;14.40;99.90
44275;DHT22;29970;52.124;5.280;2023-08-30T01:01:09;14.40;99.90
44275;DHT22;29970;52.124;5.280;2023-08-30T01:03:39;14.50;99.90
44275;DHT22;29970;52.124;5.280;2023-08-30T01:06:07;14.50;99.90
44275;DHT22;29970;52.124;5.280;2023-08-30T01:08:40;14.60;99.90
44275;DHT22;29970;52.124;5.280;2023-08-30T01:11:13;14.40;99.90
44275;DHT22;29970;52.124;5.280;2023-08-30T01:13:46;14.50;99.90
44275;DHT22;29970;52.124;5.280;2023-08-30T01:16:17;14.50;99.90
44275;DHT22;29970;52.124;5.280;2023-08-30T01:18:46;14.50;99.90
44275;DHT22;29970;52.124;5.280;2023-08-30T01:21:23;14.40;99.90
44275;DHT22;29970;52.124;5.280;2023-08-30T01:23:58;14.50;99.90
44275;DHT22;29970;52.124;5.280;2023-08-30T01:26:38;14.30;99.90
44275;DHT22;29970;52.124;5.280;2023-08-30T01:29:12;14.40;99.90
44275;DHT22;29970;52.124;5.280;2023-08-30T01:31:41;14.40;99.90
44275;DHT22;29970;52.124;5.280;2023-08-30T01:34:09;14.40;99.90
44275;DHT22;29970;52.124;5.280;2023-08-30T01:36:37;14.00;99.90
44275;DHT22;29970;52.124;5.280;2023-08-30T01:39:05;14.60;99.90
44275;DHT22;29970;52.124;5.280;2023-08-30T01:41:37;14.40;99.90
44275;DHT22;29970;52.124;5.280;2023-08-30T01:44:14;14.40;99.90
44275;DHT22;29970;52.124;5.280;2023-08-30T01:46:47;14.40;99.90
44275;DHT22;29970;52.124;5.280;2023-08-30T01:49:15;14.40;99.90
44275;DHT22;29970;52.124;5.280;2023-08-30T01:51:42;14.40;99.90
44275;DHT22;29970;52.124;5.280;2023-08-30T01:54:13;14.40;99.90
44275;DHT22;29970;52.124;5.280;2023-08-30T01:56:44;14.60;99.90
44275;DHT22;29970;52.124;5.280;2023-08-30T01:59:13;14.30;99.90
44275;DHT22;29970;52.124;5.280;2023-08-30T02:01:40;14.30;99.90
44275;DHT22;29970;52.124;5.280;2023-08-30T02:04:07;14.50;99.90
44275;DHT22;29970;52.124;5.280;2023-08-30T02:06:43;14.40;99.90
44275;DHT22;29970;52.124;5.280;2023-08-30T02:09:18;14.30;99.90
44275;DHT22;29970;52.124;5.280;2023-08-30T02:11:49;14.50;99.90
44275;DHT22;29970;52.124;5.280;2023-08-30T02:14:20;14.40;99.90
44275;DHT22;29970;52.124;5.280;2023-08-30T02:16:48;14.30;99.90
44275;DHT22;29970;52.124;5.280;2023-08-30T02:19:16;14.40;99.90
44275;DHT22;29970;52.124;5.280;2023-08-30T02:21:43;14.40;99.90
44275;DHT22;29970;52.124;5.280;2023-08-30T02:24:11;14.40;99.90
44275;DHT22;29970;52.124;5.280;2023-08-30T02:26:38;14.30;99.90
44275;DHT22;29970;52.124;5.280;2023-08-30T02:29:08;14.40;99.90
44275;DHT22;29970;52.124;5.280;2023-08-30T02:31:37;14.50;99.90
44275;DHT22;29970;52.124;5.280;2023-08-30T02:34:04;14.10;99.90
44275;DHT22;29970;52.124;5.280;2023-08-30T02:36:38;14.30;99.90
44275;DHT22;29970;52.124;5.280;2023-08-30T02:39:14;14.30;99.90
44275;DHT22;29970;52.124;5.280;2023-08-30T02:41:41;14.30;99.90
44275;DHT22;29970;52.124;5.280;2023-08-30T02:44:10;14.40;99.90
44275;DHT22;29970;52.124;5.280;2023-08-30T02:46:40;14.40;99.90
44275;DHT22;29970;52.124;5.280;2023-08-30T02:49:07;14.40;99.90
44275;DHT22;29970;52.124;5.280;2023-08-30T02:51:34;14.30;99.90
44275;DHT22;29970;52.124;5.280;2023-08-30T02:54:04;14.50;99.90
44275;DHT22;29970;52.124;5.280;2023-08-30T02:56:33;14.40;99.90
44275;DHT22;29970;52.124;5.280;2023-08-30T02:59:00;14.30;99.90
44275;DHT22;29970;52.124;5.280;2023-08-30T03:01:29;14.30;99.90
44275;DHT22;29970;52.124;5.280;2023-08-30T03:03:58;14.30;99.90
44275;DHT22;29970;52.124;5.280;2023-08-30T03:06:25;14.30;99.90
44275;DHT22;29970;52.124;5.280;2023-08-30T03:08:53;14.30;99.90
44275;DHT22;29970;52.124;5.280;2023-08-30T03:11:20;14.30;99.90
44275;DHT22;29970;52.124;5.280;2023-08-30T03:13:48;14.50;99.90
44275;DHT22;29970;52.124;5.280;2023-08-30T03:16:16;14.20;99.90
44275;DHT22;29970;52.124;5.280;2023-08-30T03:22:03;14.30;99.90
44275;DHT22;29970;52.124;5.280;2023-08-30T03:24:31;14.20;99.90
44275;DHT22;29970;52.124;5.280;2023-08-30T03:26:58;14.20;99.90
44275;DHT22;29970;52.124;5.280;2023-08-30T03:29:25;14.10;99.90
44275;DHT22;29970;52.124;5.280;2023-08-30T03:32:01;14.10;99.90
44275;DHT22;29970;52.124;5.280;2023-08-30T03:34:28;14.20;99.90
44275;DHT22;29970;52.124;5.280;2023-08-30T03:36:55;14.10;99.90
44275;DHT22;29970;52.124;5.280;2023-08-30T03:39:24;14.10;99.90
44275;DHT22;29970;52.124;5.280;2023-08-30T03:41:51;14.20;99.90
44275;DHT22;29970;52.124;5.280;2023-08-30T03:44:19;14.10;99.90
44275;DHT22;29970;52.124;5.280;2023-08-30T03:46:46;14.00;99.90
44275;DHT22;29970;52.124;5.280;2023-08-30T03:49:30;14.00;99.90
44275;DHT22;29970;52.124;5.280;2023-08-30T03:51:57;14.00;99.90
44275;DHT22;29970;52.124;5.280;2023-08-30T03:54:26;14.00;99.90
44275;DHT22;29970;52.124;5.280;2023-08-30T03:56:56;14.00;99.90
44275;DHT22;29970;52.124;5.280;2023-08-30T03:59:23;13.60;99.90
44275;DHT22;29970;52.124;5.280;2023-08-30T04:01:54;13.90;99.90
44275;DHT22;29970;52.124;5.280;2023-08-30T04:04:21;13.90;99.90
44275;DHT22;29970;52.124;5.280;2023-08-30T04:06:48;13.90;99.90
44275;DHT22;29970;52.124;5.280;2023-08-30T04:09:16;13.90;99.90
44275;DHT22;29970;52.124;5.280;2023-08-30T04:11:45;13.90;99.90
44275;DHT22;29970;52.124;5.280;2023-08-30T04:14:12;14.00;99.90
44275;DHT22;29970;52.124;5.280;2023-08-30T04:16:39;13.90;99.90
44275;DHT22;29970;52.124;5.280;2023-08-30T04:19:06;13.80;99.90
44275;DHT22;29970;52.124;5.280;2023-08-30T04:21:35;13.80;99.90
44275;DHT22;29970;52.124;5.280;2023-08-30T04:24:05;13.80;99.90
44275;DHT22;29970;52.124;5.280;2023-08-30T04:26:32;13.70;99.90
44275;DHT22;29970;52.124;5.280;2023-08-30T04:29:03;13.90;99.90
44275;DHT22;29970;52.124;5.280;2023-08-30T04:31:30;13.70;99.90
44275;DHT22;29970;52.124;5.280;2023-08-30T04:33:58;14.00;99.90
44275;DHT22;29970;52.124;5.280;2023-08-30T04:36:25;13.70;99.90
44275;DHT22;29970;52.124;5.280;2023-08-30T04:38:53;13.70;99.90
44275;DHT22;29970;52.124;5.280;2023-08-30T04:41:29;13.80;99.90
44275;DHT22;29970;52.124;5.280;2023-08-30T04:43:56;13.80;99.90
44275;DHT22;29970;52.124;5.280;2023-08-30T04:46:25;13.70;99.90
44275;DHT22;29970;52.124;5.280;2023-08-30T04:48:52;13.50;99.90
44275;DHT22;29970;52.124;5.280;2023-08-30T04:51:26;13.60;99.90
44275;DHT22;29970;52.124;5.280;2023-08-30T04:53:53;13.60;99.90
44275;DHT22;29970;52.124;5.280;2023-08-30T04:56:20;13.70;99.90
44275;DHT22;29970;52.124;5.280;2023-08-30T04:58:47;13.60;99.90
44275;DHT22;29970;52.124;5.280;2023-08-30T05:01:15;13.60;99.90
44275;DHT22;29970;52.124;5.280;2023-08-30T05:03:43;13.80;99.90
44275;DHT22;29970;52.124;5.280;2023-08-30T05:06:10;13.40;99.90
44275;DHT22;29970;52.124;5.280;2023-08-30T05:08:38;13.60;99.90
44275;DHT22;29970;52.124;5.280;2023-08-30T05:11:05;13.60;99.90
44275;DHT22;29970;52.124;5.280;2023-08-30T05:13:32;13.60;99.90
44275;DHT22;29970;52.124;5.280;2023-08-30T05:15:59;13.40;99.90
44275;DHT22;29970;52.124;5.280;2023-08-30T05:18:27;13.50;99.90
44275;DHT22;29970;52.124;5.280;2023-08-30T05:20:55;13.40;99.90
44275;DHT22;29970;52.124;5.280;2023-08-30T05:23:22;13.60;99.90
44275;DHT22;29970;52.124;5.280;2023-08-30T05:26:02;13.50;99.90
44275;DHT22;29970;52.124;5.280;2023-08-30T05:28:42;13.50;99.90
44275;DHT22;29970;52.124;5.280;2023-08-30T05:31:10;13.40;99.90
44275;DHT22;29970;52.124;5.280;2023-08-30T05:33:39;13.50;99.90
44275;DHT22;29970;52.124;5.280;2023-08-30T05:36:13;13.50;99.90
44275;DHT22;29970;52.124;5.280;2023-08-30T05:39:09;13.50;99.90
44275;DHT22;29970;52.124;5.280;2023-08-30T05:41:53;13.50;99.90
44275;DHT22;29970;52.124;5.280;2023-08-30T05:44:31;13.30;99.90
44275;DHT22;29970;52.124;5.280;2023-08-30T05:47:19;13.40;99.90
44275;DHT22;29970;52.124;5.280;2023-08-30T05:50:01;13.40;99.90
44275;DHT22;29970;52.124;5.280;2023-08-30T05:52:32;13.80;99.90
44275;DHT22;29970;52.124;5.280;2023-08-30T05:55:00;13.40;99.90
44275;DHT22;29970;52.124;5.280;2023-08-30T05:57:27;13.60;99.90
44275;DHT22;29970;52.124;5.280;2023-08-30T05:59:57;13.50;99.90
44275;DHT22;29970;52.124;5.280;2023-08-30T06:02:24;13.50;99.90
44275;DHT22;29970;52.124;5.280;2023-08-30T06:04:59;13.50;99.90
44275;DHT22;29970;52.124;5.280;2023-08-30T06:07:29;13.50;99.90
44275;DHT22;29970;52.124;5.280;2023-08-30T06:10:01;13.60;99.90
44275;DHT22;29970;52.124;5.280;2023-08-30T06:12:31;13.60;99.90
44275;DHT22;29970;52.124;5.280;2023-08-30T06:14:58;13.60;99.90
44275;DHT22;29970;52.124;5.280;2023-08-30T06:17:26;13.60;99.90
44275;DHT22;29970;52.124;5.280;2023-08-30T06:19:53;13.60;99.90
44275;DHT22;29970;52.124;5.280;2023-08-30T06:22:20;13.60;99.90
44275;DHT22;29970;52.124;5.280;2023-08-30T06:24:49;13.60;99.90
44275;DHT22;29970;52.124;5.280;2023-08-30T06:27:17;13.60;99.90
44275;DHT22;29970;52.124;5.280;2023-08-30T06:29:47;13.70;99.90
44275;DHT22;29970;52.124;5.280;2023-08-30T06:32:15;13.60;99.90
44275;DHT22;29970;52.124;5.280;2023-08-30T06:34:42;13.80;99.90
44275;DHT22;29970;52.124;5.280;2023-08-30T06:37:09;13.70;99.90
44275;DHT22;29970;52.124;5.280;2023-08-30T06:39:38;13.70;99.90
44275;DHT22;29970;52.124;5.280;2023-08-30T06:42:05;13.60;99.90
44275;DHT22;29970;52.124;5.280;2023-08-30T06:44:39;13.80;99.90
44275;DHT22;29970;52.124;5.280;2023-08-30T06:47:15;13.80;99.90
44275;DHT22;29970;52.124;5.280;2023-08-30T06:49:42;13.70;99.90
44275;DHT22;29970;52.124;5.280;2023-08-30T06:52:38;13.50;99.90
44275;DHT22;29970;52.124;5.280;2023-08-30T06:55:19;13.70;99.90
44275;DHT22;29970;52.124;5.280;2023-08-30T06:57:50;13.70;99.90
44275;DHT22;29970;52.124;5.280;2023-08-30T07:00:20;13.80;99.90
44275;DHT22;29970;52.124;5.280;2023-08-30T07:02:47;13.80;99.90
44275;DHT22;29970;52.124;5.280;2023-08-30T07:05:15;13.80;99.90
44275;DHT22;29970;52.124;5.280;2023-08-30T07:07:45;13.70;99.90
44275;DHT22;29970;52.124;5.280;2023-08-30T07:10:12;13.80;99.90
44275;DHT22;29970;52.124;5.280;2023-08-30T07:16:38;13.90;99.90
44275;DHT22;29970;52.124;5.280;2023-08-30T08:26:33;14.40;99.90
44275;DHT22;29970;52.124;5.280;2023-08-30T09:14:58;14.70;99.90
44275;DHT22;29970;52.124;5.280;2023-08-30T09:17:35;14.70;99.90
44275;DHT22;29970;52.124;5.280;2023-08-30T09:27:19;14.90;99.90
44275;DHT22;29970;52.124;5.280;2023-08-30T09:51:00;14.80;99.90
44275;DHT22;29970;52.124;5.280;2023-08-30T10:08:58;15.10;99.90
44275;DHT22;29970;52.124;5.280;2023-08-30T10:11:27;15.40;99.90
44275;DHT22;29970;52.124;5.280;2023-08-30T11:12:10;17.30;99.90
44275;DHT22;29970;52.124;5.280;2023-08-30T11:14:41;17.40;99.90
44275;DHT22;29970;52.124;5.280;2023-08-30T11:20:13;17.50;99.90
44275;DHT22;29970;52.124;5.280;2023-08-30T11:22:56;17.40;99.90
44275;DHT22;29970;52.124;5.280;2023-08-30T11:25:27;17.50;99.90
44275;DHT22;29970;52.124;5.280;2023-08-30T11:28:08;17.30;99.90
44275;DHT22;29970;52.124;5.280;2023-08-30T11:30:54;17.50;99.90
44275;DHT22;29970;52.124;5.280;2023-08-30T11:33:24;17.60;99.90
44275;DHT22;29970;52.124;5.280;2023-08-30T11:36:04;17.70;99.90
44275;DHT22;29970;52.124;5.280;2023-08-30T11:39:08;17.80;99.90
44275;DHT22;29970;52.124;5.280;2023-08-30T11:41:40;17.80;99.90
44275;DHT22;29970;52.124;5.280;2023-08-30T11:44:39;17.80;99.90
44275;DHT22;29970;52.124;5.280;2023-08-30T11:47:18;17.70;99.90
44275;DHT22;29970;52.124;5.280;2023-08-30T11:50:06;17.80;99.90
44275;DHT22;29970;52.124;5.280;2023-08-30T11:53:15;17.80;99.90
44275;DHT22;29970;52.124;5.280;2023-08-30T11:56:33;17.90;99.90
44275;DHT22;29970;52.124;5.280;2023-08-30T12:02:18;18.00;99.90
44275;DHT22;29970;52.124;5.280;2023-08-30T12:04:56;18.00;99.90
44275;DHT22;29970;52.124;5.280;2023-08-30T12:07:41;18.20;99.90
44275;DHT22;29970;52.124;5.280;2023-08-30T12:10:11;18.20;99.90
44275;DHT22;29970;52.124;5.280;2023-08-30T12:12:45;18.30;99.90
44275;DHT22;29970;52.124;5.280;2023-08-30T12:15:13;18.40;99.90
44275;DHT22;29970;52.124;5.280;2023-08-30T12:17:44;18.50;99.90
44275;DHT22;29970;52.124;5.280;2023-08-30T12:20:19;18.60;99.90
44275;DHT22;29970;52.124;5.280;2023-08-30T12:22:47;18.60;99.90
44275;DHT22;29970;52.124;5.280;2023-08-30T12:25:21;18.60;99.90
44275;DHT22;29970;52.124;5.280;2023-08-30T12:27:51;18.50;99.90
44275;DHT22;29970;52.124;5.280;2023-08-30T12:30:21;18.60;99.90
44275;DHT22;29970;52.124;5.280;2023-08-30T12:32:50;18.60;99.90
44275;DHT22;29970;52.124;5.280;2023-08-30T12:35:20;18.70;99.90
44275;DHT22;29970;52.124;5.280;2023-08-30T12:37:47;18.70;99.90
44275;DHT22;29970;52.124;5.280;2023-08-30T12:40:15;18.70;99.90
44275;DHT22;29970;52.124;5.280;2023-08-30T12:42:42;18.80;99.90
44275;DHT22;29970;52.124;5.280;2023-08-30T12:45:15;18.80;99.90
44275;DHT22;29970;52.124;5.280;2023-08-30T12:47:50;18.80;99.90
44275;DHT22;29970;52.124;5.280;2023-08-30T12:50:17;18.80;99.90
44275;DHT22;29970;52.124;5.280;2023-08-30T12:52:44;18.90;99.90
44275;DHT22;29970;52.124;5.280;2023-08-30T12:55:11;19.00;99.90
44275;DHT22;29970;52.124;5.280;2023-08-30T12:57:39;19.00;99.90
44275;DHT22;29970;52.124;5.280;2023-08-30T13:00:10;19.10;99.90
44275;DHT22;29970;52.124;5.280;2023-08-30T13:02:38;19.10;99.90
44275;DHT22;29970;52.124;5.280;2023-08-30T13:05:24;19.10;99.90
44275;DHT22;29970;52.124;5.280;2023-08-30T13:07:51;19.10;99.90
44275;DHT22;29970;52.124;5.280;2023-08-30T13:10:18;18.90;99.90
44275;DHT22;29970;52.124;5.280;2023-08-30T13:12:46;18.90;99.90
44275;DHT22;29970;52.124;5.280;2023-08-30T13:15:16;19.00;99.90
44275;DHT22;29970;52.124;5.280;2023-08-30T13:17:44;18.90;99.90
44275;DHT22;29970;52.124;5.280;2023-08-30T13:20:18;18.80;99.90
44275;DHT22;29970;52.124;5.280;2023-08-30T13:22:45;18.80;99.90
44275;DHT22;29970;52.124;5.280;2023-08-30T13:25:13;18.80;99.90
44275;DHT22;29970;52.124;5.280;2023-08-30T13:27:40;18.70;99.90
44275;DHT22;29970;52.124;5.280;2023-08-30T13:30:11;18.70;99.90
44275;DHT22;29970;52.124;5.280;2023-08-30T13:32:40;18.70;99.90
44275;DHT22;29970;52.124;5.280;2023-08-30T13:41:24;18.70;99.90
44275;DHT22;29970;52.124;5.280;2023-08-30T13:43:52;18.80;99.90
44275;DHT22;29970;52.124;5.280;2023-08-30T13:46:20;18.70;99.90
44275;DHT22;29970;52.124;5.280;2023-08-30T13:48:48;18.80;99.90
44275;DHT22;29970;52.124;5.280;2023-08-30T13:51:21;18.80;99.90
44275;DHT22;29970;52.124;5.280;2023-08-30T13:53:52;18.60;99.90
44275;DHT22;29970;52.124;5.280;2023-08-30T13:56:28;18.50;99.90
44275;DHT22;29970;52.124;5.280;2023-08-30T13:59:00;18.50;99.90
44275;DHT22;29970;52.124;5.280;2023-08-30T14:01:33;18.50;99.90
44275;DHT22;29970;52.124;5.280;2023-08-30T15:37:53;17.60;99.90
44275;DHT22;29970;52.124;5.280;2023-08-30T15:40:20;17.40;99.90
44275;DHT22;29970;52.124;5.280;2023-08-30T15:42:48;17.40;99.90
44275;DHT22;29970;52.124;5.280;2023-08-30T15:45:15;17.50;99.90
44275;DHT22;29970;52.124;5.280;2023-08-30T15:47:43;17.50;99.90
44275;DHT22;29970;52.124;5.280;2023-08-30T15:50:13;17.30;99.90
44275;DHT22;29970;52.124;5.280;2023-08-30T15:52:44;17.40;99.90
44275;DHT22;29970;52.124;5.280;2023-08-30T15:55:14;17.30;99.90
44275;DHT22;29970;52.124;5.280;2023-08-30T15:57:51;17.30;99.90
44275;DHT22;29970;52.124;5.280;2023-08-30T16:00:23;17.30;99.90
44275;DHT22;29970;52.124;5.280;2023-08-30T16:03:19;17.30;99.90
44275;DHT22;29970;52.124;5.280;2023-08-30T16:10:13;17.30;99.90
44275;DHT22;29970;52.124;5.280;2023-08-30T18:08:44;16.30;99.90
44275;DHT22;29970;52.124;5.280;2023-08-30T18:11:50;16.20;99.90
44275;DHT22;29970;52.124;5.280;2023-08-30T18:51:03;15.80;99.90
44275;DHT22;29970;52.124;5.280;2023-08-30T18:53:38;15.70;99.90
44275;DHT22;29970;52.124;5.280;2023-08-30T18:56:06;15.60;99.90
44275;DHT22;29970;52.124;5.280;2023-08-30T18:59:10;15.80;99.90
44275;DHT22;29970;52.124;5.280;2023-08-30T19:01:44;15.80;99.90
44275;DHT22;29970;52.124;5.280;2023-08-30T19:04:11;15.60;99.90
44275;DHT22;29970;52.124;5.280;2023-08-30T19:06:41;15.60;99.90
44275;DHT22;29970;52.124;5.280;2023-08-30T19:09:09;15.50;99.90
44275;DHT22;29970;52.124;5.280;2023-08-30T19:11:41;15.30;99.90
44275;DHT22;29970;52.124;5.280;2023-08-30T19:14:08;15.40;99.90
44275;DHT22;29970;52.124;5.280;2023-08-30T19:16:39;15.40;99.90
44275;DHT22;29970;52.124;5.280;2023-08-30T19:19:11;15.50;99.90
44275;DHT22;29970;52.124;5.280;2023-08-30T19:21:48;15.20;99.90
44275;DHT22;29970;52.124;5.280;2023-08-30T19:24:20;15.40;99.90
44275;DHT22;29970;52.124;5.280;2023-08-30T19:26:52;15.30;99.90
44275;DHT22;29970;52.124;5.280;2023-08-30T19:29:45;15.40;99.90
44275;DHT22;29970;52.124;5.280;2023-08-30T19:35:31;15.20;99.90
44275;DHT22;29970;52.124;5.280;2023-08-30T19:38:01;15.20;99.90
44275;DHT22;29970;52.124;5.280;2023-08-30T19:40:49;15.20;99.90
44275;DHT22;29970;52.124;5.280;2023-08-30T19:43:17;15.30;99.90
44275;DHT22;29970;52.124;5.280;2023-08-30T19:45:45;15.20;99.90
44275;DHT22;29970;52.124;5.280;2023-08-30T19:48:13;15.20;99.90
44275;DHT22;29970;52.124;5.280;2023-08-30T19:50:40;15.30;99.90
44275;DHT22;29970;52.124;5.280;2023-08-30T19:53:18;15.10;99.90
44275;DHT22;29970;52.124;5.280;2023-08-30T19:55:45;15.20;99.90
44275;DHT22;29970;52.124;5.280;2023-08-30T19:58:14;15.20;99.90
44275;DHT22;29970;52.124;5.280;2023-08-30T20:00:41;15.20;99.90
44275;DHT22;29970;52.124;5.280;2023-08-30T20:03:08;15.20;99.90
44275;DHT22;29970;52.124;5.280;2023-08-30T20:05:35;15.10;99.90
44275;DHT22;29970;52.124;5.280;2023-08-30T20:08:03;15.10;99.90
44275;DHT22;29970;52.124;5.280;2023-08-30T20:10:32;15.20;99.90
44275;DHT22;29970;52.124;5.280;2023-08-30T20:12:59;15.10;99.90
44275;DHT22;29970;52.124;5.280;2023-08-30T20:15:26;15.00;99.90
44275;DHT22;29970;52.124;5.280;2023-08-30T20:17:54;15.10;99.90
44275;DHT22;29970;52.124;5.280;2023-08-30T20:20:21;15.20;99.90
44275;DHT22;29970;52.124;5.280;2023-08-30T20:22:49;14.90;99.90
44275;DHT22;29970;52.124;5.280;2023-08-30T20:25:16;15.30;99.90
44275;DHT22;29970;52.124;5.280;2023-08-30T20:27:47;15.00;99.90
44275;DHT22;29970;52.124;5.280;2023-08-30T20:30:20;15.10;99.90
44275;DHT22;29970;52.124;5.280;2023-08-30T20:32:56;15.00;99.90
44275;DHT22;29970;52.124;5.280;2023-08-30T20:35:23;15.00;99.90
44275;DHT22;29970;52.124;5.280;2023-08-30T20:37:50;15.10;99.90
44275;DHT22;29970;52.124;5.280;2023-08-30T20:40:18;14.90;99.90
44275;DHT22;29970;52.124;5.280;2023-08-30T20:42:46;14.90;99.90
44275;DHT22;29970;52.124;5.280;2023-08-30T20:45:14;15.00;99.90
44275;DHT22;29970;52.124;5.280;2023-08-30T20:47:41;14.90;99.90
44275;DHT22;29970;52.124;5.280;2023-08-30T20:50:13;14.80;99.90
44275;DHT22;29970;52.124;5.280;2023-08-30T20:52:40;14.90;99.90
44275;DHT22;29970;52.124;5.280;2023-08-30T20:55:08;15.00;99.90
44275;DHT22;29970;52.124;5.280;2023-08-30T20:57:35;14.90;99.90
44275;DHT22;29970;52.124;5.280;2023-08-30T21:00:05;14.70;99.90
44275;DHT22;29970;52.124;5.280;2023-08-30T21:02:32;14.70;99.90
44275;DHT22;29970;52.124;5.280;2023-08-30T21:05:00;14.70;99.90
44275;DHT22;29970;52.124;5.280;2023-08-30T21:07:28;14.80;99.90
44275;DHT22;29970;52.124;5.280;2023-08-30T21:10:12;14.70;99.90
44275;DHT22;29970;52.124;5.280;2023-08-30T21:12:39;14.70;99.90
44275;DHT22;29970;52.124;5.280;2023-08-30T21:15:11;14.40;99.90
44275;DHT22;29970;52.124;5.280;2023-08-30T21:17:38;14.70;99.90
44275;DHT22;29970;52.124;5.280;2023-08-30T21:20:09;14.50;99.90
44275;DHT22;29970;52.124;5.280;2023-08-30T21:22:36;14.50;99.90
44275;DHT22;29970;52.124;5.280;2023-08-30T21:25:08;14.50;99.90
44275;DHT22;29970;52.124;5.280;2023-08-30T21:27:38;14.40;99.90
44275;DHT22;29970;52.124;5.280;2023-08-30T21:30:10;14.40;99.90
44275;DHT22;29970;52.124;5.280;2023-08-30T21:32:38;14.40;99.90
44275;DHT22;29970;52.124;5.280;2023-08-30T21:35:09;14.50;99.90
44275;DHT22;29970;52.124;5.280;2023-08-30T21:37:36;14.40;99.90
44275;DHT22;29970;52.124;5.280;2023-08-30T21:40:04;14.40;99.90
44275;DHT22;29970;52.124;5.280;2023-08-30T21:42:38;14.40;99.90
44275;DHT22;29970;52.124;5.280;2023-08-30T21:45:09;14.30;99.90
44275;DHT22;29970;52.124;5.280;2023-08-30T21:47:37;14.20;99.90
44275;DHT22;29970;52.124;5.280;2023-08-30T21:50:05;14.30;99.90
44275;DHT22;29970;52.124;5.280;2023-08-30T21:52:33;14.20;99.90
44275;DHT22;29970;52.124;5.280;2023-08-30T21:55:01;14.10;99.90
44275;DHT22;29970;52.124;5.280;2023-08-30T21:57:28;14.00;99.90
44275;DHT22;29970;52.124;5.280;2023-08-30T21:59:56;14.20;99.90
44275;DHT22;29970;52.124;5.280;2023-08-30T22:02:23;14.00;99.90
44275;DHT22;29970;52.124;5.280;2023-08-30T22:04:51;14.20;99.90
44275;DHT22;29970;52.124;5.280;2023-08-30T22:07:19;14.00;99.90
44275;DHT22;29970;52.124;5.280;2023-08-30T22:09:46;14.00;99.90
44275;DHT22;29970;52.124;5.280;2023-08-30T22:12:13;14.00;99.90
44275;DHT22;29970;52.124;5.280;2023-08-30T22:14:43;14.10;99.90
44275;DHT22;29970;52.124;5.280;2023-08-30T22:17:16;14.00;99.90
44275;DHT22;29970;52.124;5.280;2023-08-30T22:19:43;14.00;99.90
44275;DHT22;29970;52.124;5.280;2023-08-30T22:22:12;14.00;99.90
44275;DHT22;29970;52.124;5.280;2023-08-30T22:24:39;13.90;99.90
44275;DHT22;29970;52.124;5.280;2023-08-30T22:27:09;14.00;99.90
44275;DHT22;29970;52.124;5.280;2023-08-30T22:29:38;13.90;99.90
44275;DHT22;29970;52.124;5.280;2023-08-30T22:32:09;13.90;99.90
44275;DHT22;29970;52.124;5.280;2023-08-30T22:34:37;13.70;99.90
44275;DHT22;29970;52.124;5.280;2023-08-30T22:37:04;13.90;99.90
44275;DHT22;29970;52.124;5.280;2023-08-30T22:39:33;13.90;99.90
44275;DHT22;29970;52.124;5.280;2023-08-30T22:42:02;13.80;99.90
44275;DHT22;29970;52.124;5.280;2023-08-30T22:44:29;13.80;99.90
44275;DHT22;29970;52.124;5.280;2023-08-30T22:46:56;13.70;99.90
44275;DHT22;29970;52.124;5.280;2023-08-30T22:49:23;13.60;99.90
44275;DHT22;29970;52.124;5.280;2023-08-30T22:51:50;13.60;99.90
44275;DHT22;29970;52.124;5.280;2023-08-30T22:54:20;13.80;99.90
44275;DHT22;29970;52.124;5.280;2023-08-30T22:56:49;13.50;99.90
44275;DHT22;29970;52.124;5.280;2023-08-30T22:59:17;13.50;99.90
44275;DHT22;29970;52.124;5.280;2023-08-30T23:01:45;13.50;99.90
44275;DHT22;29970;52.124;5.280;2023-08-30T23:04:13;13.60;99.90
44275;DHT22;29970;52.124;5.280;2023-08-30T23:06:40;13.40;99.90
44275;DHT22;29970;52.124;5.280;2023-08-30T23:09:07;13.40;99.90
44275;DHT22;29970;52.124;5.280;2023-08-30T23:11:34;13.40;99.90
44275;DHT22;29970;52.124;5.280;2023-08-30T23:21:11;13.30;99.90
44275;DHT22;29970;52.124;5.280;2023-08-30T23:23:46;13.40;99.90
44275;DHT22;29970;52.124;5.280;2023-08-30T23:26:21;13.30;99.90
44275;DHT22;29970;52.124;5.280;2023-08-30T23:29:18;13.30;99.90
44275;DHT22;29970;52.124;5.280;2023-08-30T23:31:52;13.20;99.90
44275;DHT22;29970;52.124;5.280;2023-08-30T23:34:28;13.30;99.90
44275;DHT22;29970;52.124;5.280;2023-08-30T23:37:00;13.20;99.90
44275;DHT22;29970;52.124;5.280;2023-08-30T23:39:31;13.30;99.90
44275;DHT22;29970;52.124;5.280;2023-08-30T23:42:03;13.10;99.90
44275;DHT22;29970;52.124;5.280;2023-08-30T23:44:30;13.20;99.90
44275;DHT22;29970;52.124;5.280;2023-08-30T23:47:01;12.90;99.90
44275;DHT22;29970;52.124;5.280;2023-08-30T23:49:35;13.00;99.90
44275;DHT22;29970;52.124;5.280;2023-08-30T23:52:07;13.40;99.90
44275;DHT22;29970;52.124;5.280;2023-08-30T23:54:44;13.20;99.90
44275;DHT22;29970;52.124;5.280;2023-08-30T23:57:12;13.00;99.90
44275;DHT22;29970;52.124;5.280;2023-08-30T23:59:42;13.10;99.90
